createdAt,value
2023-04-04T00:00:38.202Z,2.01
2023-04-04T00:03:15.049Z,2.01
2023-04-04T00:05:42.445Z,2.00
2023-04-04T00:08:09.221Z,2.00
2023-04-04T00:10:36.005Z,1.99
2023-04-04T00:13:03.010Z,1.97
2023-04-04T00:15:30.221Z,1.96
2023-04-04T00:17:57.988Z,1.94
2023-04-04T00:20:24.943Z,1.89
2023-04-04T00:22:51.765Z,1.89
2023-04-04T00:25:18.609Z,1.87
2023-04-04T00:27:45.446Z,1.85
2023-04-04T00:30:12.856Z,1.84
2023-04-04T00:32:39.876Z,1.82
2023-04-04T00:35:08.168Z,1.80
2023-04-04T00:37:35.295Z,1.76
2023-04-04T00:40:03.620Z,1.74
2023-04-04T00:42:30.463Z,1.72
2023-04-04T00:44:57.292Z,1.70
2023-04-04T00:47:25.814Z,1.68
2023-04-04T00:49:52.604Z,1.65
2023-04-04T00:52:19.456Z,1.63
2023-04-04T00:54:46.305Z,1.61
2023-04-04T00:57:13.595Z,1.60
2023-04-04T00:59:41.464Z,1.58
2023-04-04T01:02:08.393Z,1.57
2023-04-04T01:04:35.885Z,1.56
2023-04-04T01:07:04.053Z,1.55
2023-04-04T01:09:31.817Z,1.54
2023-04-04T01:11:59.755Z,1.55
2023-04-04T01:14:26.940Z,1.55
2023-04-04T01:16:54.197Z,1.53
2023-04-04T01:19:43.701Z,1.52
2023-04-04T01:22:17.370Z,1.52
2023-04-04T01:24:46.916Z,1.52
2023-04-04T01:27:14.382Z,1.51
2023-04-04T01:29:46.530Z,1.51
2023-04-04T01:32:32.803Z,1.50
2023-04-04T01:35:43.460Z,1.50
2023-04-04T01:38:13.339Z,1.47
2023-04-04T01:40:46.219Z,1.46
2023-04-04T01:43:13.127Z,1.47
2023-04-04T01:45:41.916Z,1.47
2023-04-04T01:48:12.040Z,1.47
2023-04-04T01:50:40.039Z,1.48
2023-04-04T01:53:07.725Z,1.43
2023-04-04T01:55:34.539Z,1.47
2023-04-04T01:58:03.296Z,1.48
2023-04-04T02:00:30.618Z,1.47
2023-04-04T02:02:58.167Z,1.46
2023-04-04T02:05:25.293Z,1.47
2023-04-04T02:07:52.138Z,1.46
2023-04-04T02:10:24.351Z,1.41
2023-04-04T02:12:54.167Z,1.44
2023-04-04T02:15:23.432Z,1.44
2023-04-04T02:17:50.761Z,1.42
2023-04-04T02:20:20.467Z,1.42
2023-04-04T02:22:52.255Z,1.43
2023-04-04T02:25:20.554Z,1.44
2023-04-04T02:27:47.749Z,1.45
2023-04-04T02:30:15.107Z,1.44
2023-04-04T02:32:42.641Z,1.44
2023-04-04T02:35:11.524Z,1.43
2023-04-04T02:37:38.412Z,1.43
2023-04-04T02:40:08.760Z,1.43
2023-04-04T02:42:36.928Z,1.42
2023-04-04T02:45:04.445Z,1.43
2023-04-04T02:47:31.330Z,1.43
2023-04-04T02:49:58.409Z,1.45
2023-04-04T02:52:26.282Z,1.45
2023-04-04T02:54:55.058Z,1.45
2023-04-04T02:57:29.444Z,1.44
2023-04-04T02:59:56.474Z,1.42
2023-04-04T03:02:24.521Z,1.42
2023-04-04T03:04:52.231Z,1.40
2023-04-04T03:07:19.046Z,1.37
2023-04-04T03:09:45.886Z,1.35
2023-04-04T03:12:12.640Z,1.33
2023-04-04T03:14:40.398Z,1.31
2023-04-04T03:17:09.097Z,1.27
2023-04-04T03:19:36.050Z,1.23
2023-04-04T03:22:02.834Z,1.18
2023-04-04T03:24:30.958Z,1.12
2023-04-04T03:27:00.420Z,1.09
2023-04-04T03:29:27.581Z,1.04
2023-04-04T03:31:55.229Z,1.01
2023-04-04T03:34:24.162Z,0.99
2023-04-04T03:36:53.124Z,0.95
2023-04-04T03:39:20.613Z,0.90
2023-04-04T03:41:47.678Z,0.86
2023-04-04T03:44:14.540Z,0.84
2023-04-04T03:46:41.353Z,0.81
2023-04-04T03:49:11.100Z,0.79
2023-04-04T03:51:39.180Z,0.75
2023-04-04T03:54:06.378Z,0.73
2023-04-04T03:56:33.465Z,0.67
2023-04-04T03:59:02.837Z,0.62
2023-04-04T04:01:29.701Z,0.59
2023-04-04T04:03:57.450Z,0.55
2023-04-04T04:06:24.524Z,0.50
2023-04-04T04:08:51.509Z,0.44
2023-04-04T04:11:18.499Z,0.41
2023-04-04T04:13:45.574Z,0.38
2023-04-04T04:16:12.460Z,0.38
2023-04-04T04:18:39.701Z,0.35
2023-04-04T04:21:10.093Z,0.31
2023-04-04T04:23:36.846Z,0.29
2023-04-04T04:26:04.650Z,0.28
2023-04-04T04:28:33.213Z,0.26
2023-04-04T04:31:06.895Z,0.25
2023-04-04T04:33:35.803Z,0.26
2023-04-04T04:36:05.206Z,0.27
2023-04-04T04:38:39.790Z,0.24
2023-04-04T04:41:06.812Z,0.25
2023-04-04T04:43:40.993Z,0.25
2023-04-04T04:46:10.944Z,0.27
2023-04-04T04:48:38.225Z,0.28
2023-04-04T04:51:05.424Z,0.29
2023-04-04T04:53:39.195Z,0.29
2023-04-04T04:56:07.905Z,0.31
2023-04-04T04:58:35.730Z,0.32
2023-04-04T05:01:03.259Z,0.34
2023-04-04T05:03:36.224Z,0.36
2023-04-04T05:06:04.430Z,0.37
2023-04-04T05:08:31.200Z,0.36
2023-04-04T05:11:18.243Z,0.25
2023-04-04T05:13:45.338Z,0.30
2023-04-04T05:16:13.417Z,0.27
2023-04-04T05:18:42.631Z,0.21
2023-04-04T05:21:10.623Z,0.18
2023-04-04T05:23:38.268Z,0.14
2023-04-04T05:26:06.070Z,0.11
2023-04-04T05:28:35.162Z,0.08
2023-04-04T05:31:03.951Z,0.05
2023-04-04T05:33:32.235Z,0.03
2023-04-04T05:36:12.674Z,-0.00
2023-04-04T05:38:44.341Z,-0.02
2023-04-04T05:41:11.717Z,-0.05
2023-04-04T05:43:38.890Z,-0.08
2023-04-04T05:46:09.429Z,-0.11
2023-04-04T05:48:43.205Z,-0.16
2023-04-04T05:51:11.215Z,-0.18
2023-04-04T05:53:57.627Z,-0.19
2023-04-04T05:56:29.328Z,-0.19
2023-04-04T05:58:57.243Z,-0.21
2023-04-04T06:01:25.578Z,-0.24
2023-04-04T06:03:55.773Z,-0.24
2023-04-04T06:06:27.101Z,-0.24
2023-04-04T06:08:54.234Z,-0.22
2023-04-04T06:11:23.956Z,-0.24
2023-04-04T06:13:54.574Z,-0.22
2023-04-04T06:16:21.879Z,-0.22
2023-04-04T06:18:48.844Z,-0.22
2023-04-04T06:21:15.682Z,-0.19
2023-04-04T06:23:42.478Z,-0.19
2023-04-04T06:26:09.734Z,-0.18
2023-04-04T06:28:47.728Z,-0.15
2023-04-04T06:31:16.838Z,-0.13
2023-04-04T06:33:44.574Z,-0.13
2023-04-04T06:36:11.778Z,-0.10
2023-04-04T06:38:38.601Z,-0.06
2023-04-04T06:41:14.608Z,-0.04
2023-04-04T06:43:41.664Z,-0.01
2023-04-04T06:46:08.914Z,-0.02
2023-04-04T06:48:36.990Z,-0.02
2023-04-04T06:51:07.835Z,-0.03
2023-04-04T06:53:36.007Z,-0.02
2023-04-04T06:56:04.250Z,-0.03
2023-04-04T06:58:32.156Z,-0.05
2023-04-04T07:01:03.724Z,-0.07
2023-04-04T07:03:31.261Z,-0.09
2023-04-04T07:05:58.045Z,-0.10
2023-04-04T07:08:24.813Z,-0.12
2023-04-04T07:10:51.629Z,-0.12
2023-04-04T07:13:18.606Z,-0.14
2023-04-04T07:15:49.647Z,-0.15
2023-04-04T07:18:16.474Z,-0.18
2023-04-04T07:20:46.062Z,-0.21
2023-04-04T07:23:13.063Z,-0.23
2023-04-04T07:25:39.886Z,-0.24
2023-04-04T07:28:12.888Z,-0.23
2023-04-04T07:30:41.131Z,-0.24
2023-04-04T07:33:08.393Z,-0.24
2023-04-04T07:35:35.298Z,-0.25
2023-04-04T07:38:02.774Z,-0.25
2023-04-04T07:40:30.049Z,-0.24
2023-04-04T07:42:57.235Z,-0.25
2023-04-04T07:45:24.075Z,-0.26
2023-04-04T07:47:51.122Z,-0.24
2023-04-04T07:50:18.410Z,-0.23
2023-04-04T07:52:51.840Z,-0.22
2023-04-04T07:55:19.695Z,-0.22
2023-04-04T07:57:46.679Z,-0.22
2023-04-04T08:00:14.086Z,-0.21
2023-04-04T08:02:43.175Z,-0.19
2023-04-04T08:05:10.441Z,-0.18
2023-04-04T08:07:37.269Z,-0.19
2023-04-04T08:10:04.446Z,-0.20
2023-04-04T08:12:31.166Z,-0.24
2023-04-04T08:14:57.949Z,-0.19
2023-04-04T08:17:25.112Z,-0.19
2023-04-04T08:19:51.897Z,-0.19
2023-04-04T08:22:19.135Z,-0.18
2023-04-04T08:24:45.981Z,-0.17
2023-04-04T08:27:14.471Z,-0.16
2023-04-04T08:29:41.465Z,-0.16
2023-04-04T08:32:08.934Z,-0.13
2023-04-04T08:34:35.851Z,-0.13
2023-04-04T08:37:02.872Z,-0.12
2023-04-04T08:39:29.673Z,-0.11
2023-04-04T08:42:04.847Z,-0.10
2023-04-04T08:44:34.233Z,-0.08
2023-04-04T08:47:04.712Z,-0.10
2023-04-04T08:49:36.022Z,-0.11
2023-04-04T08:52:03.294Z,-0.12
2023-04-04T08:54:31.265Z,-0.12
2023-04-04T08:56:58.647Z,-0.12
2023-04-04T08:59:26.372Z,-0.12
2023-04-04T09:02:13.962Z,-0.20
2023-04-04T09:04:44.587Z,-0.13
2023-04-04T09:07:14.534Z,-0.13
2023-04-04T09:09:45.860Z,-0.13
2023-04-04T09:12:14.298Z,-0.12
2023-04-04T09:14:43.546Z,-0.12
2023-04-04T09:17:10.443Z,-0.14
2023-04-04T09:19:37.536Z,-0.10
2023-04-04T09:22:09.008Z,-0.09
2023-04-04T09:24:40.881Z,-0.07
2023-04-04T09:27:11.801Z,-0.08
2023-04-04T09:29:40.006Z,-0.06
2023-04-04T09:32:14.273Z,-0.04
2023-04-04T09:34:43.158Z,-0.04
2023-04-04T09:37:13.714Z,-0.02
2023-04-04T09:39:41.524Z,0.02
2023-04-04T09:42:08.673Z,0.05
2023-04-04T09:44:36.362Z,0.06
2023-04-04T09:49:59.955Z,0.11
2023-04-04T09:52:27.092Z,0.09
2023-04-04T09:54:58.042Z,0.10
2023-04-04T09:57:46.517Z,0.09
2023-04-04T10:00:19.208Z,0.07
2023-04-04T10:02:48.097Z,0.06
2023-04-04T10:05:16.228Z,0.03
2023-04-04T10:07:44.157Z,0.04
2023-04-04T10:10:11.261Z,0.05
2023-04-04T10:12:38.368Z,0.05
2023-04-04T10:15:05.847Z,0.06
2023-04-04T10:17:40.430Z,0.10
2023-04-04T10:20:09.306Z,0.10
2023-04-04T10:22:38.178Z,0.09
2023-04-04T10:25:05.792Z,0.07
2023-04-04T10:27:33.755Z,0.05
2023-04-04T10:30:01.055Z,0.02
2023-04-04T10:32:36.864Z,0.01
2023-04-04T10:35:07.171Z,-0.01
2023-04-04T10:37:45.323Z,0.00
2023-04-04T10:40:18.989Z,0.00
2023-04-04T10:42:47.529Z,0.02
2023-04-04T10:45:20.941Z,0.03
2023-04-04T10:47:49.706Z,0.04
2023-04-04T10:50:16.548Z,0.05
2023-04-04T10:52:45.525Z,0.09
2023-04-04T10:55:14.493Z,0.13
2023-04-04T10:57:48.300Z,0.16
2023-04-04T11:00:19.848Z,0.15
2023-04-04T11:02:52.549Z,0.13
2023-04-04T11:05:21.754Z,0.12
2023-04-04T11:10:30.330Z,0.08
2023-04-04T11:13:12.706Z,0.09
2023-04-04T11:16:01.707Z,0.08
2023-04-04T11:21:04.793Z,0.04
2023-04-04T11:24:04.267Z,0.01
2023-04-04T11:26:31.028Z,-0.02
2023-04-04T11:29:08.933Z,-0.02
2023-04-04T11:31:43.525Z,-0.00
2023-04-04T11:34:12.842Z,-0.02
2023-04-04T11:36:40.847Z,-0.02
2023-04-04T11:39:28.136Z,-0.02
2023-04-04T11:41:58.355Z,-0.01
2023-04-04T11:44:28.959Z,-0.00
2023-04-04T11:47:11.311Z,0.02
2023-04-04T11:49:43.141Z,0.01
2023-04-04T11:52:12.686Z,-0.00
2023-04-04T11:54:42.160Z,-0.02
2023-04-04T11:57:13.450Z,-0.04
2023-04-04T11:59:42.901Z,-0.06
2023-04-04T12:02:10.689Z,-0.07
2023-04-04T12:04:41.945Z,-0.07
2023-04-04T12:07:12.215Z,-0.07
2023-04-04T12:09:40.179Z,-0.08
2023-04-04T12:12:12.213Z,-0.08
2023-04-04T12:14:39.703Z,-0.08
2023-04-04T12:17:06.787Z,-0.08
2023-04-04T12:19:38.385Z,-0.10
2023-04-04T12:22:05.534Z,-0.14
2023-04-04T12:24:32.686Z,-0.16
2023-04-04T12:26:59.977Z,-0.18
2023-04-04T12:29:28.380Z,-0.20
2023-04-04T12:31:57.183Z,-0.19
2023-04-04T12:37:02.058Z,-0.20
2023-04-04T12:39:29.710Z,-0.22
2023-04-04T12:41:59.456Z,-0.25
2023-04-04T12:44:30.331Z,-0.26
2023-04-04T12:47:02.670Z,-0.27
2023-04-04T12:49:48.319Z,-0.27
2023-04-04T12:52:22.705Z,-0.24
2023-04-04T12:55:06.709Z,-0.22
2023-04-04T12:57:36.205Z,-0.21
2023-04-04T13:00:05.884Z,-0.19
2023-04-04T13:02:35.590Z,-0.19
2023-04-04T13:05:03.693Z,-0.18
2023-04-04T13:07:34.463Z,-0.17
2023-04-04T13:10:04.521Z,-0.17
2023-04-04T13:12:53.256Z,-0.19
2023-04-04T13:15:20.102Z,-0.22
2023-04-04T13:17:48.986Z,-0.24
2023-04-04T13:20:18.055Z,-0.25
2023-04-04T13:22:45.105Z,-0.25
2023-04-04T13:25:11.989Z,-0.31
2023-04-04T13:27:38.968Z,-0.27
2023-04-04T13:30:08.153Z,-0.28
2023-04-04T13:32:36.219Z,-0.29
2023-04-04T13:35:03.251Z,-0.30
2023-04-04T13:37:30.082Z,-0.32
2023-04-04T13:39:56.866Z,-0.32
2023-04-04T13:42:29.551Z,-0.34
2023-04-04T13:44:56.926Z,-0.34
2023-04-04T13:47:26.961Z,-0.36
2023-04-04T13:49:54.580Z,-0.37
2023-04-04T13:52:21.719Z,-0.37
2023-04-04T13:54:49.725Z,-0.38
2023-04-04T13:57:16.584Z,-0.36
2023-04-04T13:59:43.556Z,-0.36
2023-04-04T14:02:10.477Z,-0.37
2023-04-04T14:04:37.461Z,-0.36
2023-04-04T14:07:04.451Z,-0.37
2023-04-04T14:09:31.312Z,-0.38
2023-04-04T14:11:58.323Z,-0.38
2023-04-04T14:14:25.746Z,-0.37
2023-04-04T14:16:52.571Z,-0.39
2023-04-04T14:19:19.621Z,-0.39
2023-04-04T14:22:00.372Z,-0.38
2023-04-04T14:24:27.394Z,-0.38
2023-04-04T14:26:54.371Z,-0.38
2023-04-04T14:29:21.488Z,-0.38
2023-04-04T14:31:48.538Z,-0.37
2023-04-04T14:34:15.543Z,-0.37
2023-04-04T14:36:42.451Z,-0.38
2023-04-04T14:39:09.391Z,-0.37
2023-04-04T14:41:36.162Z,-0.38
2023-04-04T14:44:03.189Z,-0.39
2023-04-04T14:46:30.489Z,-0.40
2023-04-04T14:48:57.775Z,-0.42
2023-04-04T14:51:24.638Z,-0.44
2023-04-04T14:53:52.044Z,-0.44
2023-04-04T14:56:20.603Z,-0.43
2023-04-04T14:58:49.979Z,-0.45
2023-04-04T15:01:17.616Z,-0.47
2023-04-04T15:03:44.500Z,-0.47
2023-04-04T15:06:11.397Z,-0.48
2023-04-04T15:08:38.136Z,-0.49
2023-04-04T15:11:04.949Z,-0.49
2023-04-04T15:13:33.010Z,-0.48
2023-04-04T15:16:01.099Z,-0.50
2023-04-04T15:18:28.094Z,-0.49
2023-04-04T15:20:58.128Z,-0.49
2023-04-04T15:23:25.275Z,-0.49
2023-04-04T15:25:52.181Z,-0.49
2023-04-04T15:28:18.982Z,-0.48
2023-04-04T15:30:45.758Z,-0.48
2023-04-04T15:33:12.611Z,-0.49
2023-04-04T15:35:39.420Z,-0.48
2023-04-04T15:38:06.239Z,-0.49
2023-04-04T15:40:32.996Z,-0.49
2023-04-04T15:42:59.798Z,-0.49
2023-04-04T15:45:26.921Z,-0.52
2023-04-04T15:47:53.926Z,-0.48
2023-04-04T15:50:21.021Z,-0.49
2023-04-04T15:52:48.202Z,-0.49
2023-04-04T15:55:16.486Z,-0.50
2023-04-04T15:57:44.168Z,-0.51
2023-04-04T16:00:19.051Z,-0.52
2023-04-04T16:02:46.198Z,-0.53
2023-04-04T16:05:13.305Z,-0.54
2023-04-04T16:07:40.445Z,-0.54
2023-04-04T16:10:08.563Z,-0.55
2023-04-04T16:12:35.642Z,-0.56
2023-04-04T16:15:05.176Z,-0.57
2023-04-04T16:17:33.379Z,-0.57
2023-04-04T16:20:00.613Z,-0.58
2023-04-04T16:22:27.646Z,-0.59
2023-04-04T16:24:54.707Z,-0.59
2023-04-04T16:27:21.791Z,-0.60
2023-04-04T16:29:48.883Z,-0.61
2023-04-04T16:32:15.813Z,-0.60
2023-04-04T16:34:42.837Z,-0.61
2023-04-04T16:37:11.377Z,-0.62
2023-04-04T16:39:38.576Z,-0.62
2023-04-04T16:42:05.375Z,-0.63
2023-04-04T16:44:32.148Z,-0.64
2023-04-04T16:46:59.114Z,-0.64
2023-04-04T16:49:26.137Z,-0.64
2023-04-04T16:51:53.286Z,-0.64
2023-04-04T16:54:20.414Z,-0.64
2023-04-04T16:56:47.269Z,-0.64
2023-04-04T16:59:16.034Z,-0.64
2023-04-04T17:01:43.715Z,-0.64
2023-04-04T17:04:10.989Z,-0.65
2023-04-04T17:06:38.410Z,-0.65
2023-04-04T17:09:05.602Z,-0.65
2023-04-04T17:11:32.384Z,-0.64
2023-04-04T17:13:59.896Z,-0.64
2023-04-04T17:16:27.496Z,-0.64
2023-04-04T17:18:54.436Z,-0.65
2023-04-04T17:21:21.395Z,-0.66
2023-04-04T17:23:48.586Z,-0.67
2023-04-04T17:26:15.421Z,-0.67
2023-04-04T17:28:42.330Z,-0.67
2023-04-04T17:31:09.180Z,-0.68
2023-04-04T17:33:36.120Z,-0.68
2023-04-04T17:36:03.377Z,-0.68
2023-04-04T17:38:30.346Z,-0.69
2023-04-04T17:41:00.194Z,-0.68
2023-04-04T17:43:27.405Z,-0.68
2023-04-04T17:45:54.407Z,-0.68
2023-04-04T18:11:11.867Z,-0.56
2023-04-04T18:13:39.297Z,-0.58
2023-04-04T18:16:10.144Z,-0.58
2023-04-04T18:18:38.704Z,-0.60
2023-04-04T18:21:06.889Z,-0.65
2023-04-04T18:23:33.738Z,-0.66
2023-04-04T18:26:01.542Z,-0.67
2023-04-04T18:28:28.724Z,-0.68
2023-04-04T18:30:55.900Z,-0.68
2023-04-04T18:33:24.545Z,-0.68
2023-04-04T18:35:51.494Z,-0.70
2023-04-04T18:38:18.801Z,-0.69
2023-04-04T18:40:46.093Z,-0.69
2023-04-04T18:43:13.492Z,-0.70
2023-04-04T18:45:41.017Z,-0.70
2023-04-04T18:48:08.044Z,-0.70
2023-04-04T18:50:35.256Z,-0.70
2023-04-04T18:53:02.133Z,-0.71
2023-04-04T18:55:28.954Z,-0.72
2023-04-04T18:57:57.109Z,-0.73
2023-04-04T19:00:30.215Z,-0.72
2023-04-04T19:03:07.069Z,-0.73
2023-04-04T19:05:37.758Z,-0.73
2023-04-04T19:08:10.388Z,-0.72
2023-04-04T19:10:39.108Z,-0.72
2023-04-04T19:13:06.278Z,-0.72
2023-04-04T19:15:34.434Z,-0.72
2023-04-04T19:18:02.018Z,-0.72
2023-04-04T19:20:29.220Z,-0.72
2023-04-04T19:23:11.029Z,-0.72
2023-04-04T19:25:55.451Z,-0.71
2023-04-04T19:28:23.389Z,-0.70
2023-04-04T19:30:53.729Z,-0.69
2023-04-04T19:33:25.594Z,-0.67
2023-04-04T19:36:11.301Z,-0.67
2023-04-04T19:38:41.813Z,-0.67
2023-04-04T19:41:26.907Z,-0.66
2023-04-04T19:43:53.778Z,-0.65
2023-04-04T19:46:25.977Z,-0.65
2023-04-04T19:48:54.580Z,-0.64
2023-04-04T19:51:21.256Z,-0.63
2023-04-04T19:53:55.291Z,-0.63
2023-04-04T19:56:44.492Z,-0.63
2023-04-04T19:59:56.601Z,-0.62
2023-04-04T20:02:33.797Z,-0.62
2023-04-04T20:05:28.567Z,-0.61
2023-04-04T20:07:55.339Z,-0.61
2023-04-04T20:10:41.621Z,-0.62
2023-04-04T20:13:09.664Z,-0.62
2023-04-04T20:16:04.456Z,-0.62
2023-04-04T20:18:32.412Z,-0.63
2023-04-04T20:21:11.783Z,-0.64
2023-04-04T20:23:45.364Z,-0.65
2023-04-04T20:26:33.022Z,-0.65
2023-04-04T20:28:59.863Z,-0.65
2023-04-04T20:31:26.649Z,-0.65
2023-04-04T20:33:53.458Z,-0.65
2023-04-04T20:36:20.424Z,-0.65
2023-04-04T20:38:48.386Z,-0.65
2023-04-04T20:41:46.785Z,-0.65
2023-04-04T20:44:18.765Z,-0.65
2023-04-04T20:46:45.508Z,-0.65
2023-04-04T20:49:19.210Z,-0.65
2023-04-04T20:51:46.073Z,-0.65
2023-04-04T20:54:15.078Z,-0.66
2023-04-04T20:57:02.182Z,-0.68
2023-04-04T20:59:34.822Z,-0.68
2023-04-04T21:02:16.338Z,-0.68
2023-04-04T21:04:45.245Z,-0.69
2023-04-04T21:07:38.316Z,-0.69
2023-04-04T21:10:23.155Z,-0.69
2023-04-04T21:12:51.314Z,-0.68
2023-04-04T21:15:25.854Z,-0.69
2023-04-04T21:17:52.771Z,-0.70
2023-04-04T21:20:47.351Z,-0.72
2023-04-04T21:23:43.560Z,-0.73
2023-04-04T21:26:36.640Z,-0.73
2023-04-04T21:29:16.121Z,-0.74
2023-04-04T21:31:43.267Z,-0.74
2023-04-04T21:34:16.592Z,-0.74
2023-04-04T21:36:45.636Z,-0.73
2023-04-04T21:39:23.195Z,-0.75
2023-04-04T21:41:57.606Z,-0.76
2023-04-04T21:44:25.659Z,-0.75
2023-04-04T21:46:54.743Z,-0.76
2023-04-04T21:49:22.735Z,-0.77
2023-04-04T21:51:50.144Z,-0.77
2023-04-04T21:54:17.235Z,-0.78
2023-04-04T21:56:44.066Z,-0.77
2023-04-04T21:59:10.963Z,-0.77
2023-04-04T22:01:38.552Z,-0.79
2023-04-04T22:04:05.695Z,-0.79
2023-04-04T22:06:32.523Z,-0.81
2023-04-04T22:09:01.125Z,-0.80
2023-04-04T22:11:28.596Z,-0.79
2023-04-04T22:14:06.265Z,-0.78
2023-04-04T22:16:38.239Z,-0.77
2023-04-04T22:19:05.119Z,-0.76
2023-04-04T22:21:35.678Z,-0.76
2023-04-04T22:24:02.796Z,-0.76
2023-04-04T22:26:32.792Z,-0.76
2023-04-04T22:29:02.329Z,-0.76
2023-04-04T22:31:29.274Z,-0.78
2023-04-04T22:33:56.128Z,-0.78
2023-04-04T22:36:24.054Z,-0.79
2023-04-04T22:38:56.015Z,-0.79
2023-04-04T22:41:26.781Z,-0.79
2023-04-04T22:43:53.676Z,-0.80
2023-04-04T22:46:20.629Z,-0.79
2023-04-04T22:48:47.771Z,-0.78
2023-04-04T22:51:15.184Z,-0.77
2023-04-04T22:53:43.502Z,-0.77
2023-04-04T22:56:10.671Z,-0.76
2023-04-04T22:58:37.936Z,-0.76
2023-04-04T23:01:05.631Z,-0.76
2023-04-04T23:03:32.398Z,-0.75
2023-04-04T23:05:59.118Z,-0.76
2023-04-04T23:08:25.992Z,-0.77
2023-04-04T23:10:52.827Z,-0.77
2023-04-04T23:13:20.277Z,-0.78
2023-04-04T23:15:47.048Z,-0.79
2023-04-04T23:18:14.008Z,-0.79
2023-04-04T23:20:41.506Z,-0.81
2023-04-04T23:23:08.513Z,-0.82
2023-04-04T23:25:35.470Z,-0.82
2023-04-04T23:28:02.304Z,-0.83
2023-04-04T23:30:29.216Z,-0.81
2023-04-04T23:32:56.098Z,-0.81
2023-04-04T23:35:22.975Z,-0.82
2023-04-04T23:37:49.850Z,-0.82
2023-04-04T23:40:16.973Z,-0.83
2023-04-04T23:42:43.768Z,-0.83
2023-04-04T23:45:11.211Z,-0.83
2023-04-04T23:47:38.406Z,-0.83
2023-04-04T23:50:06.972Z,-0.84
2023-04-04T23:52:34.593Z,-0.84
2023-04-04T23:55:01.405Z,-0.84
2023-04-04T23:57:28.228Z,-0.84
2023-04-04T23:59:55.297Z,-0.84
